Time;durP1;ratioP1;P1;durP2;ratioP2;P2;SDS_P1;SDS_P2;PMS_P1;PMS_P2;Temp;Humidity;BMP_temperature;BMP_pressure;BME280_temperature;BME280_humidity;BME280_pressure;Samples;Min_cycle;Max_cycle;Signal;HPM_P1;HPM_P2
2023/08/31 00:00:51;;;;;;;6.63;4.38;;;11.10;99.90;;;;;;5064959;28;20127;-76
2023/08/31 00:03:17;;;;;;;9.02;5.03;;;11.10;99.90;;;;;;5056903;28;20051;-76
2023/08/31 00:05:43;;;;;;;6.70;4.88;;;11.10;99.90;;;;;;5096168;27;20479;-76
2023/08/31 00:08:13;;;;;;;7.28;4.78;;;11.10;99.90;;;;;;5073454;28;20048;-76
2023/08/31 00:10:39;;;;;;;10.20;5.53;;;11.10;99.90;;;;;;5063284;28;20158;-76
2023/08/31 00:13:08;;;;;;;6.95;4.80;;;11.10;99.90;;;;;;5067325;28;20044;-76
2023/08/31 00:15:35;;;;;;;8.23;4.93;;;11.10;99.90;;;;;;5063690;28;20056;-76
2023/08/31 00:18:04;;;;;;;9.55;4.95;;;11.20;99.90;;;;;;5067707;28;20490;-76
2023/08/31 00:20:36;;;;;;;11.40;6.05;;;11.20;99.90;;;;;;5058910;28;20570;-76
2023/08/31 00:23:03;;;;;;;9.27;5.07;;;11.20;99.90;;;;;;5062279;28;20080;-76
2023/08/31 00:25:29;;;;;;;7.80;4.50;;;11.20;99.90;;;;;;5046571;28;20652;-75
2023/08/31 00:27:56;;;;;;;9.20;4.28;;;11.20;99.90;;;;;;5041681;28;20406;-76
2023/08/31 00:30:25;;;;;;;7.07;3.55;;;11.20;99.90;;;;;;5036150;28;20048;-75
2023/08/31 00:32:55;;;;;;;5.63;3.30;;;11.20;99.90;;;;;;5048526;28;20525;-75
2023/08/31 00:35:20;;;;;;;4.50;2.50;;;11.20;99.90;;;;;;5038994;28;20730;-75
2023/08/31 00:37:49;;;;;;;6.97;2.83;;;11.30;99.90;;;;;;5041701;28;20310;-76
2023/08/31 00:40:16;;;;;;;9.32;3.22;;;11.30;99.90;;;;;;5041987;28;20249;-75
2023/08/31 00:42:41;;;;;;;6.47;3.10;;;11.30;99.90;;;;;;5055263;28;20051;-76
2023/08/31 00:45:08;;;;;;;6.90;2.90;;;11.30;99.90;;;;;;5056524;28;20037;-76
2023/08/31 00:47:34;;;;;;;7.65;3.83;;;11.30;99.90;;;;;;5044023;28;20051;-76
2023/08/31 00:50:00;;;;;;;7.57;3.20;;;11.30;99.90;;;;;;5043856;28;20037;-76
2023/08/31 00:52:26;;;;;;;6.68;2.70;;;11.30;99.90;;;;;;5046949;28;20052;-76
2023/08/31 00:54:53;;;;;;;6.90;2.85;;;11.30;99.90;;;;;;5053660;28;20052;-75
2023/08/31 00:57:19;;;;;;;6.78;3.00;;;11.30;99.90;;;;;;5051477;28;20550;-74
2023/08/31 00:59:45;;;;;;;7.30;2.67;;;11.30;99.90;;;;;;5055431;28;20047;-75
2023/08/31 01:02:27;;;;;;;6.88;2.90;;;11.30;99.90;;;;;;5053652;28;20048;-75
2023/08/31 01:05:01;;;;;;;10.48;3.50;;;11.30;99.90;;;;;;5052889;28;20041;-75
2023/08/31 01:07:45;;;;;;;9.50;3.25;;;11.30;99.90;;;;;;5052035;28;20048;-75
2023/08/31 01:10:33;;;;;;;7.38;2.70;;;11.30;99.90;;;;;;5085729;28;20477;-75
2023/08/31 01:13:03;;;;;;;5.90;2.80;;;11.30;99.90;;;;;;5048250;28;20040;-76
2023/08/31 01:15:32;;;;;;;7.70;3.20;;;11.20;99.90;;;;;;5084695;28;20349;-76
2023/08/31 01:18:03;;;;;;;8.02;2.67;;;11.20;99.90;;;;;;5053084;28;20060;-76
2023/08/31 01:20:53;;;;;;;5.50;2.20;;;11.20;99.90;;;;;;5057818;28;20110;-76
2023/08/31 01:23:21;;;;;;;5.15;2.15;;;11.20;99.90;;;;;;5058703;28;20487;-76
2023/08/31 01:25:48;;;;;;;3.72;2.03;;;11.20;99.90;;;;;;5042076;28;20052;-75
2023/08/31 01:28:14;;;;;;;6.85;2.40;;;11.20;99.90;;;;;;5060200;28;20036;-75
2023/08/31 01:30:41;;;;;;;8.68;2.65;;;11.10;99.90;;;;;;5059176;28;20059;-75
2023/08/31 01:33:07;;;;;;;7.22;2.08;;;11.10;99.90;;;;;;5055386;28;20056;-75
2023/08/31 01:35:46;;;;;;;6.60;1.70;;;11.10;99.90;;;;;;5062081;28;20324;-75
2023/08/31 01:38:17;;;;;;;4.72;1.77;;;11.00;99.90;;;;;;5077148;28;20044;-75
2023/08/31 01:40:47;;;;;;;5.28;1.92;;;11.00;99.90;;;;;;5084280;28;20056;-75
2023/08/31 01:43:13;;;;;;;4.97;1.80;;;11.00;99.90;;;;;;5038726;28;20056;-75
2023/08/31 01:45:44;;;;;;;4.70;1.88;;;11.00;99.90;;;;;;5044919;28;20439;-75
2023/08/31 01:48:11;;;;;;;6.28;1.80;;;10.90;99.90;;;;;;5061579;28;20520;-75
2023/08/31 01:50:37;;;;;;;5.30;1.88;;;10.90;99.90;;;;;;5063295;28;20044;-75
2023/08/31 01:53:02;;;;;;;4.25;1.65;;;10.90;99.90;;;;;;5057947;28;20117;-76
2023/08/31 01:55:28;;;;;;;6.45;2.10;;;10.90;99.90;;;;;;5052398;28;20507;-76
2023/08/31 01:57:54;;;;;;;5.15;1.92;;;10.90;99.90;;;;;;5071875;28;20072;-76
2023/08/31 02:00:20;;;;;;;4.47;2.15;;;11.00;99.90;;;;;;5048948;28;20055;-75
2023/08/31 02:02:46;;;;;;;3.72;2.00;;;10.90;99.90;;;;;;5063462;28;20076;-75
2023/08/31 02:05:12;;;;;;;7.47;2.67;;;10.90;99.90;;;;;;5045685;28;20510;-75
2023/08/31 02:07:37;;;;;;;5.25;3.05;;;10.90;99.90;;;;;;5049708;28;20058;-76
2023/08/31 02:10:06;;;;;;;5.75;2.35;;;10.90;99.90;;;;;;5050832;28;20044;-75
2023/08/31 02:12:32;;;;;;;7.07;3.45;;;10.90;99.90;;;;;;5063357;28;20040;-75
2023/08/31 02:14:59;;;;;;;7.20;3.75;;;10.90;99.90;;;;;;5058828;28;20041;-75
2023/08/31 02:17:25;;;;;;;5.80;4.03;;;10.90;99.90;;;;;;5043011;28;20095;-75
2023/08/31 02:19:51;;;;;;;9.00;4.63;;;10.90;99.90;;;;;;5043962;28;20044;-75
2023/08/31 02:22:17;;;;;;;8.05;4.95;;;10.90;99.90;;;;;;5059099;28;20114;-75
2023/08/31 02:24:43;;;;;;;6.82;5.30;;;10.90;99.90;;;;;;5060032;28;20040;-76
2023/08/31 02:27:08;;;;;;;8.05;5.10;;;10.90;99.90;;;;;;5058499;28;20044;-75
2023/08/31 02:29:34;;;;;;;8.57;5.57;;;10.90;99.90;;;;;;5056141;28;20048;-75
2023/08/31 02:32:00;;;;;;;8.05;5.57;;;10.90;99.90;;;;;;5058900;28;20123;-75
2023/08/31 02:34:25;;;;;;;11.05;6.53;;;10.90;99.90;;;;;;5044399;28;20098;-75
2023/08/31 02:36:51;;;;;;;9.10;6.65;;;10.90;99.90;;;;;;5042972;28;20036;-75
2023/08/31 02:39:17;;;;;;;9.52;6.68;;;10.90;99.90;;;;;;5054788;28;20155;-76
2023/08/31 02:41:43;;;;;;;13.10;7.32;;;10.90;99.90;;;;;;5056935;28;20072;-76
2023/08/31 02:44:08;;;;;;;9.30;6.80;;;10.90;99.90;;;;;;5055604;28;20044;-76
2023/08/31 02:46:34;;;;;;;7.95;6.20;;;10.90;99.90;;;;;;5056869;28;20102;-76
2023/08/31 02:49:00;;;;;;;7.75;6.00;;;10.90;99.90;;;;;;5040539;28;20037;-75
2023/08/31 02:51:29;;;;;;;7.68;5.63;;;10.90;99.90;;;;;;5057435;28;20075;-74
2023/08/31 02:53:55;;;;;;;12.23;8.88;;;10.90;99.90;;;;;;5041836;28;20051;-75
2023/08/31 02:56:20;;;;;;;8.13;5.40;;;10.90;99.90;;;;;;5085523;28;20051;-75
2023/08/31 02:58:46;;;;;;;6.10;5.13;;;10.90;99.90;;;;;;5053798;28;20071;-75
2023/08/31 03:01:13;;;;;;;6.57;4.75;;;10.90;99.90;;;;;;5039709;28;20072;-76
2023/08/31 03:03:40;;;;;;;6.00;5.10;;;10.90;99.90;;;;;;5056708;28;20408;-76
2023/08/31 03:06:09;;;;;;;5.55;4.88;;;10.90;99.90;;;;;;5041558;28;20454;-76
2023/08/31 03:08:36;;;;;;;8.75;5.55;;;10.90;99.90;;;;;;5045416;28;20053;-76
2023/08/31 03:11:03;;;;;;;6.30;4.60;;;10.90;99.90;;;;;;5054738;28;20529;-76
2023/08/31 03:13:29;;;;;;;6.10;4.63;;;10.90;99.90;;;;;;5071673;28;20083;-75
2023/08/31 03:15:56;;;;;;;5.90;4.93;;;10.90;99.90;;;;;;5065988;28;20076;-76
2023/08/31 03:18:22;;;;;;;6.00;4.68;;;10.80;99.90;;;;;;5075784;28;20132;-75
2023/08/31 03:20:48;;;;;;;6.80;5.57;;;10.90;99.90;;;;;;5064999;28;20076;-75
2023/08/31 03:23:14;;;;;;;6.22;4.38;;;10.80;99.90;;;;;;5059060;28;20139;-76
2023/08/31 03:25:41;;;;;;;6.63;4.90;;;10.80;99.90;;;;;;5049695;28;20474;-76
2023/08/31 03:28:06;;;;;;;5.70;4.60;;;10.80;99.90;;;;;;5045374;28;20036;-76
2023/08/31 03:30:32;;;;;;;6.07;4.60;;;10.80;99.90;;;;;;5046013;28;20437;-76
2023/08/31 03:33:02;;;;;;;5.88;5.28;;;10.80;99.90;;;;;;5060449;28;20418;-76
2023/08/31 03:35:32;;;;;;;8.52;6.32;;;10.80;99.90;;;;;;5064538;28;20048;-76
2023/08/31 03:37:58;;;;;;;7.20;5.05;;;10.80;99.90;;;;;;5061521;28;20134;-76
2023/08/31 03:40:24;;;;;;;8.13;6.15;;;10.80;99.90;;;;;;5065039;28;20036;-76
2023/08/31 03:42:50;;;;;;;7.05;6.18;;;10.80;99.90;;;;;;5051333;28;20453;-76
2023/08/31 03:45:16;;;;;;;8.02;7.15;;;10.80;99.90;;;;;;5050344;28;20071;-75
2023/08/31 03:47:42;;;;;;;8.18;7.38;;;10.80;99.90;;;;;;5072801;28;20407;-75
2023/08/31 03:50:08;;;;;;;9.73;8.02;;;10.80;99.90;;;;;;5048846;28;20033;-74
2023/08/31 03:52:34;;;;;;;8.65;7.75;;;10.80;99.90;;;;;;5042957;28;20037;-74
2023/08/31 03:55:00;;;;;;;8.23;7.47;;;10.80;99.90;;;;;;5047124;28;20071;-75
2023/08/31 03:57:26;;;;;;;9.43;8.15;;;10.80;99.90;;;;;;5049354;28;20080;-75
2023/08/31 03:59:52;;;;;;;10.35;8.98;;;10.80;99.90;;;;;;5060173;28;20040;-75
2023/08/31 04:02:17;;;;;;;10.43;8.88;;;10.80;99.90;;;;;;5037973;28;20534;-74
2023/08/31 04:04:43;;;;;;;9.30;8.40;;;10.80;99.90;;;;;;5050993;28;20048;-75
2023/08/31 04:07:09;;;;;;;10.05;9.15;;;10.80;99.90;;;;;;5061382;28;20087;-75
2023/08/31 04:09:38;;;;;;;11.18;9.55;;;10.80;99.90;;;;;;5042964;28;20489;-75
2023/08/31 04:12:04;;;;;;;10.57;9.60;;;10.80;99.90;;;;;;5062554;28;20502;-75
2023/08/31 04:14:30;;;;;;;9.88;8.98;;;10.80;99.90;;;;;;5065886;28;20189;-75
2023/08/31 04:16:56;;;;;;;11.55;10.55;;;10.80;99.90;;;;;;5046679;28;20128;-75
2023/08/31 04:19:22;;;;;;;12.90;10.85;;;10.80;99.90;;;;;;5060918;28;20235;-75
2023/08/31 04:21:48;;;;;;;11.23;10.15;;;10.80;99.90;;;;;;5040053;28;20160;-76
2023/08/31 04:24:14;;;;;;;13.57;11.52;;;10.80;99.90;;;;;;5053972;28;20068;-75
2023/08/31 04:26:40;;;;;;;13.20;12.10;;;10.70;99.90;;;;;;5056963;28;20052;-76
2023/08/31 04:29:06;;;;;;;14.43;13.13;;;10.70;99.90;;;;;;5052193;28;20040;-76
2023/08/31 04:31:32;;;;;;;14.75;13.43;;;10.80;99.90;;;;;;5052821;28;20041;-76
2023/08/31 04:33:58;;;;;;;13.88;12.63;;;10.80;99.90;;;;;;5049521;28;20516;-76
2023/08/31 04:36:25;;;;;;;15.23;13.50;;;10.80;99.90;;;;;;5045276;28;20052;-76
2023/08/31 04:38:51;;;;;;;13.80;12.60;;;10.80;99.90;;;;;;5043634;28;20037;-76
2023/08/31 04:41:18;;;;;;;15.98;14.35;;;10.80;99.90;;;;;;5030040;28;20056;-76
2023/08/31 04:43:47;;;;;;;19.40;17.25;;;10.80;99.90;;;;;;5042091;28;20447;-76
2023/08/31 04:46:13;;;;;;;15.45;13.82;;;10.80;99.90;;;;;;5040759;28;20037;-75
2023/08/31 04:48:39;;;;;;;15.00;13.65;;;10.80;99.90;;;;;;5058182;28;20063;-75
2023/08/31 04:51:05;;;;;;;15.40;13.90;;;10.80;99.90;;;;;;5057804;28;20175;-75
2023/08/31 04:53:31;;;;;;;15.10;13.60;;;10.70;99.90;;;;;;5052993;28;20135;-75
2023/08/31 04:55:57;;;;;;;15.77;14.27;;;10.80;99.90;;;;;;5061395;28;20055;-75
2023/08/31 04:58:23;;;;;;;15.85;14.07;;;10.80;99.90;;;;;;5028493;28;20660;-75
2023/08/31 05:00:49;;;;;;;14.15;12.85;;;10.70;99.90;;;;;;5044273;28;20162;-75
2023/08/31 05:03:14;;;;;;;15.38;13.82;;;10.80;99.90;;;;;;5058482;28;20123;-75
2023/08/31 05:05:43;;;;;;;15.93;14.10;;;10.80;99.90;;;;;;5042404;28;20041;-75
2023/08/31 05:08:09;;;;;;;14.52;13.02;;;10.70;99.90;;;;;;5062730;28;20075;-75
2023/08/31 05:10:35;;;;;;;15.85;14.25;;;10.80;99.90;;;;;;5042074;28;20136;-75
2023/08/31 05:13:01;;;;;;;14.38;12.98;;;10.70;99.90;;;;;;5060100;28;20047;-76
2023/08/31 05:15:28;;;;;;;13.18;11.90;;;10.80;99.90;;;;;;5033396;28;20044;-75
2023/08/31 05:17:54;;;;;;;14.80;13.30;;;10.80;99.90;;;;;;5045843;28;20526;-75
2023/08/31 05:20:22;;;;;;;16.23;14.52;;;10.80;99.90;;;;;;5073641;28;20107;-75
2023/08/31 05:22:48;;;;;;;14.60;13.15;;;10.80;99.90;;;;;;5057957;28;20044;-75
2023/08/31 05:25:14;;;;;;;14.95;13.38;;;10.80;99.90;;;;;;5038314;28;20040;-75
2023/08/31 05:27:39;;;;;;;16.65;13.63;;;10.80;99.90;;;;;;5054160;28;20055;-75
2023/08/31 05:30:06;;;;;;;19.35;14.32;;;10.80;99.90;;;;;;5041511;28;20265;-75
2023/08/31 05:32:32;;;;;;;22.00;15.60;;;10.90;99.90;;;;;;5037284;28;20048;-75
2023/08/31 05:34:59;;;;;;;13.13;11.75;;;10.90;99.90;;;;;;5058249;28;20036;-75
2023/08/31 05:37:25;;;;;;;15.18;12.38;;;10.90;99.90;;;;;;5052178;28;20052;-75
2023/08/31 05:39:51;;;;;;;16.10;12.65;;;10.90;99.90;;;;;;5043403;28;20137;-77
2023/08/31 05:42:17;;;;;;;19.02;14.63;;;11.00;99.90;;;;;;5048309;28;20094;-77
2023/08/31 05:44:44;;;;;;;15.45;12.73;;;11.00;99.90;;;;;;5047722;28;20052;-77
2023/08/31 05:47:10;;;;;;;14.43;11.38;;;11.10;99.90;;;;;;5055054;28;20033;-77
2023/08/31 05:49:36;;;;;;;22.02;13.75;;;11.10;99.90;;;;;;5045334;28;20044;-77
2023/08/31 05:52:02;;;;;;;12.60;11.00;;;11.20;99.90;;;;;;5034646;28;20469;-77
2023/08/31 05:54:28;;;;;;;12.38;10.60;;;11.20;99.90;;;;;;5045226;28;20306;-77
2023/08/31 05:56:53;;;;;;;11.70;10.35;;;11.30;99.90;;;;;;5054093;28;20044;-77
2023/08/31 05:59:19;;;;;;;13.15;9.10;;;11.40;99.90;;;;;;5043802;28;20062;-77
2023/08/31 06:01:45;;;;;;;12.80;9.68;;;11.40;99.90;;;;;;5045858;28;20045;-75
2023/08/31 06:04:11;;;;;;;12.45;9.13;;;11.40;99.90;;;;;;5060903;28;20032;-75
2023/08/31 06:06:37;;;;;;;13.23;9.30;;;11.50;99.90;;;;;;5042816;28;20103;-75
2023/08/31 06:09:04;;;;;;;15.68;8.73;;;11.60;99.90;;;;;;5062075;28;20135;-75
2023/08/31 06:11:34;;;;;;;12.45;8.18;;;11.60;99.90;;;;;;5048880;28;20131;-75
2023/08/31 06:14:03;;;;;;;13.68;8.38;;;11.70;99.90;;;;;;5068648;28;20054;-75
2023/08/31 06:16:29;;;;;;;12.45;8.50;;;11.70;99.90;;;;;;5047567;28;20822;-75
2023/08/31 06:18:54;;;;;;;12.32;7.63;;;11.80;99.90;;;;;;5057851;28;21296;-76
2023/08/31 06:21:20;;;;;;;9.80;6.53;;;11.80;99.90;;;;;;5059898;28;20045;-75
2023/08/31 06:23:46;;;;;;;10.80;6.55;;;11.90;99.90;;;;;;5060855;28;20482;-76
2023/08/31 06:26:12;;;;;;;11.35;7.97;;;11.90;99.90;;;;;;5058943;28;20086;-75
2023/08/31 06:28:37;;;;;;;11.82;6.57;;;12.00;99.90;;;;;;5055413;28;20051;-76
2023/08/31 06:31:04;;;;;;;10.15;6.15;;;12.00;99.90;;;;;;5057654;28;20043;-76
2023/08/31 06:33:29;;;;;;;8.55;5.78;;;12.10;99.90;;;;;;5055093;28;20050;-76
2023/08/31 06:35:55;;;;;;;12.27;6.68;;;12.10;99.90;;;;;;5062172;28;20041;-76
2023/08/31 06:38:21;;;;;;;12.35;6.85;;;12.20;99.90;;;;;;5062588;28;20052;-76
2023/08/31 06:40:47;;;;;;;8.38;4.82;;;12.20;99.90;;;;;;5052575;28;20618;-76
2023/08/31 06:43:13;;;;;;;7.97;4.40;;;12.30;99.90;;;;;;5061322;28;20044;-75
2023/08/31 06:45:40;;;;;;;9.80;4.78;;;12.30;99.90;;;;;;5052966;28;20055;-75
2023/08/31 06:48:06;;;;;;;9.27;4.53;;;12.40;99.90;;;;;;5055143;28;20064;-74
2023/08/31 06:50:35;;;;;;;8.60;4.40;;;12.50;99.90;;;;;;5063709;28;20048;-75
2023/08/31 06:53:01;;;;;;;9.07;4.60;;;12.60;99.90;;;;;;5060344;28;20044;-75
2023/08/31 06:55:26;;;;;;;6.40;4.28;;;12.70;99.90;;;;;;5042981;28;20048;-74
2023/08/31 06:57:52;;;;;;;8.27;5.07;;;12.70;99.90;;;;;;5047910;28;20049;-74
2023/08/31 07:00:18;;;;;;;8.68;5.25;;;12.80;99.90;;;;;;5057213;28;20118;-74
2023/08/31 07:02:44;;;;;;;7.90;5.50;;;12.90;99.90;;;;;;5054523;28;20099;-77
2023/08/31 07:05:11;;;;;;;9.48;6.28;;;13.00;99.90;;;;;;5059170;28;20044;-76
2023/08/31 07:07:37;;;;;;;8.57;6.03;;;13.00;99.90;;;;;;5063503;28;20470;-74
2023/08/31 07:10:05;;;;;;;10.45;6.60;;;13.10;99.90;;;;;;5064216;28;20174;-74
2023/08/31 07:12:31;;;;;;;8.30;5.80;;;13.20;99.90;;;;;;5060855;28;20048;-74
2023/08/31 07:14:57;;;;;;;7.70;5.57;;;13.30;99.90;;;;;;5063451;28;20052;-74
2023/08/31 07:17:23;;;;;;;8.13;4.95;;;13.40;99.90;;;;;;5056495;28;20037;-75
2023/08/31 07:19:48;;;;;;;9.00;5.22;;;13.50;99.90;;;;;;5049066;28;20056;-75
2023/08/31 07:22:15;;;;;;;6.95;4.75;;;13.60;99.90;;;;;;5065230;28;20078;-75
2023/08/31 07:24:41;;;;;;;8.25;4.50;;;13.70;99.90;;;;;;5069074;28;20122;-75
2023/08/31 07:27:06;;;;;;;7.35;5.10;;;13.80;99.90;;;;;;5043589;28;20083;-75
2023/08/31 07:29:33;;;;;;;8.98;4.65;;;13.90;99.90;;;;;;5039764;28;20410;-75
2023/08/31 07:31:58;;;;;;;8.93;5.53;;;14.00;99.90;;;;;;5039347;28;20040;-75
2023/08/31 07:34:24;;;;;;;7.38;3.45;;;14.00;99.90;;;;;;5060445;28;20051;-75
2023/08/31 07:36:50;;;;;;;7.75;3.63;;;14.00;99.90;;;;;;5060196;28;20033;-77
2023/08/31 07:39:19;;;;;;;6.25;2.97;;;14.10;99.90;;;;;;5071783;28;20053;-76
2023/08/31 07:41:45;;;;;;;6.07;3.10;;;14.10;99.90;;;;;;5041066;28;20032;-76
2023/08/31 07:44:13;;;;;;;8.80;2.90;;;14.20;99.90;;;;;;5039745;28;20041;-76
2023/08/31 07:46:39;;;;;;;9.05;3.45;;;14.20;99.90;;;;;;5058309;28;20109;-76
2023/08/31 07:49:06;;;;;;;8.02;3.22;;;14.30;99.90;;;;;;5045183;28;20037;-76
2023/08/31 07:51:44;;;;;;;7.57;3.55;;;14.30;99.90;;;;;;5056822;28;20900;-76
2023/08/31 07:54:10;;;;;;;7.88;2.60;;;14.30;99.90;;;;;;5057859;28;20502;-76
2023/08/31 07:56:36;;;;;;;6.28;2.65;;;14.40;99.90;;;;;;5038995;28;20076;-76
2023/08/31 07:59:03;;;;;;;5.70;2.42;;;14.60;99.90;;;;;;5048879;28;20297;-76
2023/08/31 08:01:29;;;;;;;7.65;2.60;;;14.80;99.90;;;;;;5061727;28;20110;-76
2023/08/31 08:03:55;;;;;;;6.55;1.88;;;14.90;99.90;;;;;;5069296;28;20490;-76
2023/08/31 08:06:20;;;;;;;5.85;2.25;;;15.00;99.90;;;;;;5057622;28;20430;-76
2023/08/31 08:08:46;;;;;;;7.03;2.20;;;15.00;99.90;;;;;;5046409;28;20131;-76
2023/08/31 08:11:12;;;;;;;4.68;1.80;;;15.10;99.90;;;;;;5059216;28;21814;-76
2023/08/31 08:13:38;;;;;;;5.75;1.70;;;15.30;99.90;;;;;;5064839;28;20043;-76
2023/08/31 08:16:03;;;;;;;4.45;1.42;;;15.50;99.90;;;;;;5070910;28;20628;-76
2023/08/31 08:18:30;;;;;;;5.78;1.27;;;15.60;99.90;;;;;;5060995;28;20067;-77
2023/08/31 08:20:56;;;;;;;4.07;1.52;;;15.70;99.90;;;;;;5063047;28;20068;-77
2023/08/31 08:23:23;;;;;;;5.75;1.73;;;15.90;99.90;;;;;;5051513;28;20125;-77
2023/08/31 08:25:49;;;;;;;7.63;1.70;;;16.00;99.90;;;;;;5063144;28;20066;-77
2023/08/31 08:28:14;;;;;;;4.82;1.55;;;16.10;99.90;;;;;;5041574;28;20041;-77
2023/08/31 08:30:41;;;;;;;6.47;1.45;;;16.30;99.90;;;;;;5058643;28;20041;-78
2023/08/31 08:33:07;;;;;;;4.53;1.60;;;16.40;99.90;;;;;;5044095;28;20068;-76
2023/08/31 08:35:33;;;;;;;4.90;1.20;;;16.70;99.90;;;;;;5047459;28;20131;-77
2023/08/31 08:37:59;;;;;;;5.57;1.40;;;16.90;99.90;;;;;;5061734;28;20131;-77
2023/08/31 08:40:25;;;;;;;2.28;0.90;;;17.10;99.90;;;;;;5061998;28;20125;-77
2023/08/31 08:42:53;;;;;;;3.75;1.05;;;17.20;99.90;;;;;;5061413;28;20032;-77
2023/08/31 08:45:24;;;;;;;8.82;1.90;;;17.40;99.90;;;;;;5057760;28;20080;-77
2023/08/31 08:47:51;;;;;;;3.80;0.90;;;17.50;99.90;;;;;;5040699;28;20051;-77
2023/08/31 08:50:17;;;;;;;4.05;0.85;;;17.70;99.90;;;;;;5057053;28;20474;-77
2023/08/31 08:52:44;;;;;;;4.07;0.80;;;17.90;99.90;;;;;;5063090;28;20036;-77
2023/08/31 08:55:09;;;;;;;3.83;0.57;;;17.80;99.90;;;;;;5066107;28;20567;-77
2023/08/31 08:57:35;;;;;;;0.60;0.30;;;17.70;99.90;;;;;;5045754;28;20139;-77
2023/08/31 09:00:03;;;;;;;3.97;0.50;;;17.40;99.90;;;;;;5043656;28;20044;-77
2023/08/31 09:02:29;;;;;;;0.77;0.30;;;17.00;99.90;;;;;;5047867;28;20127;-77
2023/08/31 09:04:55;;;;;;;3.65;0.60;;;16.70;99.90;;;;;;5058021;28;20087;-77
2023/08/31 09:07:24;;;;;;;6.38;0.90;;;16.40;99.90;;;;;;5089249;27;20049;-77
2023/08/31 09:09:51;;;;;;;3.30;0.70;;;16.20;99.90;;;;;;5056073;28;20041;-77
2023/08/31 09:12:18;;;;;;;4.57;0.60;;;16.00;99.90;;;;;;5069596;28;20896;-77
2023/08/31 09:14:56;;;;;;;2.67;0.50;;;15.90;99.90;;;;;;5035324;28;20060;-77
2023/08/31 09:17:25;;;;;;;2.53;0.73;;;15.80;99.90;;;;;;5055310;28;20094;-76
2023/08/31 09:20:05;;;;;;;3.05;0.75;;;16.00;99.90;;;;;;5062147;28;20146;-77
2023/08/31 09:22:32;;;;;;;4.27;1.03;;;16.30;99.90;;;;;;5042983;28;20892;-77
2023/08/31 09:24:58;;;;;;;2.30;0.95;;;16.60;99.90;;;;;;5048886;28;20068;-78
2023/08/31 09:27:24;;;;;;;3.97;0.70;;;16.80;99.90;;;;;;5091195;28;20487;-78
2023/08/31 09:29:53;;;;;;;3.92;0.70;;;16.90;99.90;;;;;;5047871;28;20045;-77
2023/08/31 09:32:19;;;;;;;4.78;1.15;;;16.90;99.90;;;;;;5050306;28;20619;-78
2023/08/31 09:34:45;;;;;;;2.85;0.70;;;16.80;99.90;;;;;;5057395;28;20110;-78
2023/08/31 09:37:11;;;;;;;3.33;1.23;;;16.80;99.90;;;;;;5051364;28;20037;-78
2023/08/31 09:39:41;;;;;;;3.60;1.10;;;16.70;99.90;;;;;;5042253;28;20518;-79
2023/08/31 09:42:06;;;;;;;3.60;1.03;;;16.60;99.90;;;;;;5054337;28;20040;-78
2023/08/31 09:44:32;;;;;;;3.65;0.95;;;16.50;99.90;;;;;;5050069;28;20583;-78
2023/08/31 09:46:58;;;;;;;3.40;0.80;;;16.40;99.90;;;;;;5042868;28;20083;-78
2023/08/31 09:49:25;;;;;;;4.97;1.33;;;16.30;99.90;;;;;;5054953;28;21564;-78
2023/08/31 09:51:52;;;;;;;4.13;0.77;;;16.30;99.90;;;;;;5046750;28;20044;-77
2023/08/31 09:54:19;;;;;;;5.43;1.25;;;16.50;99.90;;;;;;5051385;28;20499;-78
2023/08/31 09:56:46;;;;;;;4.82;0.93;;;16.70;99.90;;;;;;5052509;28;20066;-78
2023/08/31 09:59:17;;;;;;;4.35;1.40;;;16.70;99.90;;;;;;5037777;28;20036;-78
2023/08/31 10:01:45;;;;;;;3.80;1.15;;;16.70;99.90;;;;;;5047472;28;20044;-78
2023/08/31 10:04:15;;;;;;;3.80;1.27;;;16.70;99.90;;;;;;5042332;28;20040;-77
2023/08/31 10:06:44;;;;;;;2.38;0.75;;;16.70;99.90;;;;;;5047952;28;20128;-78
2023/08/31 10:09:13;;;;;;;4.78;0.85;;;16.80;99.90;;;;;;5041904;28;21075;-78
2023/08/31 10:11:40;;;;;;;3.25;0.70;;;16.80;99.90;;;;;;5054156;28;20049;-78
2023/08/31 10:14:13;;;;;;;2.90;0.90;;;16.80;99.90;;;;;;5045852;28;20125;-77
2023/08/31 10:16:39;;;;;;;;;;;16.90;99.90;;;;;;5041654;28;20045;-77
2023/08/31 10:19:05;;;;;;;3.13;0.60;;;17.10;99.90;;;;;;5053398;28;20457;-77
2023/08/31 10:21:33;;;;;;;1.88;0.43;;;17.20;99.90;;;;;;5063379;28;20160;-77
2023/08/31 10:24:00;;;;;;;4.50;0.65;;;17.40;99.90;;;;;;5089822;28;20041;-77
2023/08/31 10:26:30;;;;;;;2.38;0.50;;;17.60;99.90;;;;;;5059729;28;20403;-77
2023/08/31 10:29:00;;;;;;;3.20;0.60;;;17.70;99.90;;;;;;5057312;28;20123;-77
2023/08/31 10:31:32;;;;;;;2.10;0.50;;;17.90;99.90;;;;;;5050415;28;20503;-77
2023/08/31 10:34:05;;;;;;;2.13;0.57;;;18.10;99.90;;;;;;5069841;28;20115;-77
2023/08/31 10:36:38;;;;;;;5.35;1.02;;;18.30;99.90;;;;;;5040676;28;20049;-77
2023/08/31 10:39:15;;;;;;;6.15;0.95;;;18.40;99.90;;;;;;5047438;28;20336;-77
2023/08/31 10:41:42;;;;;;;4.60;0.73;;;18.30;99.90;;;;;;5035207;28;20506;-77
2023/08/31 10:44:21;;;;;;;17.27;6.00;;;18.10;99.90;;;;;;5032827;28;20124;-77
2023/08/31 10:46:47;;;;;;;4.28;1.38;;;17.90;99.90;;;;;;5045118;28;20041;-76
2023/08/31 10:49:15;;;;;;;5.22;1.08;;;17.80;99.90;;;;;;5041808;28;20098;-77
2023/08/31 10:51:43;;;;;;;2.97;0.82;;;17.90;99.90;;;;;;5059117;28;20109;-77
2023/08/31 10:54:23;;;;;;;4.03;1.00;;;18.10;99.90;;;;;;5042092;28;20418;-77
2023/08/31 10:57:00;;;;;;;3.70;1.00;;;18.30;99.90;;;;;;5052473;28;20053;-77
2023/08/31 10:59:42;;;;;;;3.00;0.60;;;18.40;99.90;;;;;;5048110;28;20427;-77
2023/08/31 11:02:07;;;;;;;2.05;0.52;;;18.50;99.90;;;;;;5052106;28;20040;-77
2023/08/31 11:04:54;;;;;;;3.00;0.80;;;18.60;99.90;;;;;;5054663;28;20390;-78
2023/08/31 11:07:23;;;;;;;6.43;1.00;;;18.80;99.90;;;;;;5048952;28;20056;-77
2023/08/31 11:09:49;;;;;;;4.10;0.80;;;19.00;99.90;;;;;;5040249;28;20134;-77
2023/08/31 11:12:15;;;;;;;2.28;0.68;;;19.20;99.90;;;;;;5052756;28;20036;-78
2023/08/31 11:14:41;;;;;;;4.28;0.50;;;19.30;99.90;;;;;;5050293;28;20088;-76
2023/08/31 11:17:08;;;;;;;2.47;0.50;;;19.40;99.90;;;;;;5049758;28;20114;-76
2023/08/31 11:19:35;;;;;;;6.32;0.93;;;19.40;99.90;;;;;;5041148;28;20056;-76
2023/08/31 11:22:02;;;;;;;4.80;0.75;;;19.40;99.90;;;;;;5050274;28;20045;-76
2023/08/31 11:24:35;;;;;;;3.28;0.50;;;19.30;99.90;;;;;;5056598;28;20102;-76
2023/08/31 11:27:03;;;;;;;4.53;0.75;;;19.20;99.90;;;;;;5037135;28;20037;-77
2023/08/31 11:29:29;;;;;;;3.60;0.90;;;19.00;99.90;;;;;;5053071;28;20041;-77
2023/08/31 11:32:00;;;;;;;6.05;0.88;;;18.80;99.90;;;;;;5049300;28;20044;-77
2023/08/31 11:34:25;;;;;;;4.32;1.00;;;18.60;99.90;;;;;;5048264;28;20410;-77
2023/08/31 11:36:51;;;;;;;4.90;0.95;;;18.50;99.90;;;;;;5041753;28;20124;-77
2023/08/31 11:39:18;;;;;;;5.72;1.00;;;18.50;99.90;;;;;;5050949;28;20075;-77
2023/08/31 11:41:44;;;;;;;3.70;0.73;;;18.50;99.90;;;;;;5056734;28;20055;-77
2023/08/31 11:44:13;;;;;;;3.78;1.02;;;18.50;99.90;;;;;;5045796;28;20041;-77
2023/08/31 11:46:41;;;;;;;4.15;0.63;;;18.60;99.90;;;;;;5053663;28;20055;-78
2023/08/31 11:49:07;;;;;;;2.78;0.60;;;18.60;99.90;;;;;;5047467;28;20044;-76
2023/08/31 11:51:34;;;;;;;3.30;0.70;;;18.70;99.90;;;;;;5046986;28;20041;-78
2023/08/31 11:54:03;;;;;;;5.03;0.77;;;18.80;99.90;;;;;;5057067;28;20048;-77
2023/08/31 11:56:42;;;;;;;5.78;1.10;;;18.90;99.90;;;;;;5051896;28;20068;-75
2023/08/31 11:59:12;;;;;;;5.55;0.98;;;19.00;99.90;;;;;;5053898;28;20079;-76
2023/08/31 12:01:39;;;;;;;3.05;0.75;;;19.20;99.90;;;;;;5061245;28;20052;-76
2023/08/31 12:04:13;;;;;;;6.15;1.15;;;19.40;99.90;;;;;;5054581;28;20052;-76
2023/08/31 12:06:39;;;;;;;4.53;0.90;;;19.60;99.90;;;;;;5053292;28;20045;-75
2023/08/31 12:09:09;;;;;;;3.53;0.80;;;19.50;99.90;;;;;;5052596;28;20106;-76
2023/08/31 12:11:35;;;;;;;2.83;0.80;;;19.50;99.90;;;;;;5043008;28;20080;-76
2023/08/31 12:14:03;;;;;;;4.85;1.10;;;19.30;99.90;;;;;;5053701;28;20041;-75
2023/08/31 12:16:36;;;;;;;3.13;0.80;;;19.20;99.90;;;;;;5055474;28;20485;-75
2023/08/31 12:19:04;;;;;;;4.43;1.20;;;19.10;99.90;;;;;;5040150;28;20473;-76
2023/08/31 12:21:31;;;;;;;3.08;0.80;;;19.00;99.90;;;;;;5053591;28;20129;-76
2023/08/31 12:24:00;;;;;;;2.78;0.70;;;18.70;99.90;;;;;;5060200;28;20056;-76
2023/08/31 12:26:26;;;;;;;4.15;0.95;;;18.60;99.90;;;;;;5047780;28;20044;-76
2023/08/31 12:28:52;;;;;;;5.30;1.05;;;18.30;99.90;;;;;;5070567;28;20041;-76
2023/08/31 12:31:18;;;;;;;5.75;1.08;;;18.20;99.90;;;;;;5055880;28;20492;-76
2023/08/31 12:33:44;;;;;;;4.03;1.10;;;17.90;99.90;;;;;;5053707;28;20052;-76
2023/08/31 12:36:13;;;;;;;4.65;1.38;;;17.80;99.90;;;;;;5043886;28;20056;-76
2023/08/31 12:38:39;;;;;;;5.03;0.90;;;17.60;99.90;;;;;;5046671;28;20093;-76
2023/08/31 12:41:05;;;;;;;8.88;1.23;;;17.60;99.90;;;;;;5046557;28;20032;-76
2023/08/31 12:43:32;;;;;;;4.47;1.10;;;17.50;99.90;;;;;;5059320;28;20040;-76